Time;durP1;ratioP1;P1;durP2;ratioP2;P2;SDS_P1;SDS_P2;PMS_P1;PMS_P2;Temp;Humidity;BMP_temperature;BMP_pressure;BME280_temperature;BME280_humidity;BME280_pressure;Samples;Min_cycle;Max_cycle;Signal;HPM_P1;HPM_P2
2022/11/01 05:45:47;;;;;;;8.50;3.28;;;14.70;99.90;;;;;;10393636;23;20051;-74
2022/11/01 05:50:48;;;;;;;6.72;3.10;;;14.80;99.90;;;;;;10215967;29;20051;-75
2022/11/01 05:55:53;;;;;;;7.68;2.70;;;14.90;99.90;;;;;;10223454;29;20056;-75
2022/11/01 06:00:58;;;;;;;8.25;2.60;;;14.90;99.90;;;;;;10221379;29;20192;-74
2022/11/01 06:06:02;;;;;;;7.50;2.38;;;15.00;99.90;;;;;;10222718;29;20489;-76
2022/11/01 06:11:05;;;;;;;9.23;2.45;;;15.00;99.90;;;;;;10220967;29;20047;-74
2022/11/01 06:16:09;;;;;;;6.57;2.45;;;15.10;99.90;;;;;;10202926;29;20048;-75
2022/11/01 06:21:11;;;;;;;7.78;2.45;;;15.20;99.90;;;;;;10218510;29;20461;-74
2022/11/01 06:26:13;;;;;;;5.00;2.28;;;15.20;99.90;;;;;;10219419;29;20079;-74
2022/11/01 06:31:16;;;;;;;6.60;2.42;;;15.30;99.90;;;;;;10214125;29;20727;-77
2022/11/01 06:36:18;;;;;;;6.75;2.20;;;15.40;99.90;;;;;;10205027;29;20115;-75
2022/11/01 06:41:19;;;;;;;5.78;2.38;;;15.40;99.90;;;;;;10218937;29;20083;-77
2022/11/01 06:46:23;;;;;;;6.65;2.67;;;15.30;99.90;;;;;;10218599;29;20040;-74
2022/11/01 06:51:25;;;;;;;7.82;2.90;;;15.30;99.90;;;;;;10212710;29;20119;-76
2022/11/01 06:56:26;;;;;;;7.30;3.13;;;15.40;99.90;;;;;;10218142;29;20048;-74
2022/11/01 07:01:30;;;;;;;10.30;3.28;;;15.40;99.90;;;;;;10218181;29;20529;-76
2022/11/01 07:06:32;;;;;;;5.00;2.20;;;15.50;99.90;;;;;;10218565;29;20110;-73
2022/11/01 07:11:34;;;;;;;5.78;1.70;;;15.50;99.90;;;;;;10207172;29;20040;-76
2022/11/01 07:16:38;;;;;;;4.63;1.92;;;15.60;99.90;;;;;;10204363;29;20048;-75
2022/11/01 07:21:40;;;;;;;5.30;1.77;;;15.60;99.90;;;;;;10178792;29;20087;-74
2022/11/01 07:26:42;;;;;;;6.40;1.70;;;15.60;99.90;;;;;;10209563;29;20048;-74
2022/11/01 07:31:46;;;;;;;5.38;1.98;;;15.70;99.90;;;;;;10193784;29;20048;-76
2022/11/01 07:36:47;;;;;;;5.07;1.77;;;15.70;99.90;;;;;;10200289;29;20048;-75
2022/11/01 07:41:51;;;;;;;5.47;1.80;;;15.80;99.90;;;;;;10186282;29;20055;-75
2022/11/01 07:46:54;;;;;;;5.60;1.67;;;15.80;99.90;;;;;;10216402;29;20128;-78
2022/11/01 07:51:56;;;;;;;5.18;1.58;;;15.90;99.90;;;;;;10199094;29;20100;-75
2022/11/01 07:56:58;;;;;;;2.83;1.15;;;15.90;99.90;;;;;;10208516;29;20079;-74
2022/11/01 08:02:01;;;;;;;2.25;0.95;;;15.90;99.90;;;;;;10212564;29;20090;-79
2022/11/01 08:07:03;;;;;;;2.40;1.00;;;15.90;99.90;;;;;;10204815;29;20051;-79
2022/11/01 08:12:06;;;;;;;2.47;0.80;;;16.00;99.90;;;;;;10212398;29;20580;-80
2022/11/01 08:17:09;;;;;;;2.95;0.88;;;16.10;99.90;;;;;;10210473;29;20521;-79
2022/11/01 08:22:11;;;;;;;1.77;0.77;;;16.10;99.90;;;;;;10199636;29;20059;-80
2022/11/01 08:27:13;;;;;;;2.15;0.85;;;16.20;99.90;;;;;;10198531;29;20180;-78
2022/11/01 08:32:21;;;;;;;1.98;0.80;;;16.30;99.90;;;;;;10179836;29;20530;-76
2022/11/01 08:37:22;;;;;;;3.85;0.90;;;16.30;99.90;;;;;;10198993;29;20058;-79
2022/11/01 08:42:24;;;;;;;1.88;0.80;;;16.30;99.90;;;;;;10209343;29;20138;-78
2022/11/01 08:47:27;;;;;;;2.00;0.77;;;16.30;99.90;;;;;;10210227;29;20501;-79
2022/11/01 08:52:30;;;;;;;2.38;0.80;;;16.40;99.90;;;;;;10201790;29;20106;-80
2022/11/01 08:57:32;;;;;;;3.72;1.10;;;16.50;99.90;;;;;;10203009;29;20044;-77
2022/11/01 09:02:36;;;;;;;3.30;0.90;;;16.60;99.90;;;;;;10209365;29;20087;-80
2022/11/01 09:07:38;;;;;;;3.35;0.93;;;16.70;99.90;;;;;;10205791;29;20415;-79
2022/11/01 09:12:40;;;;;;;2.08;0.60;;;16.70;99.90;;;;;;10209066;29;20536;-78
2022/11/01 09:17:43;;;;;;;4.05;0.80;;;16.70;99.90;;;;;;10198447;29;20047;-77
2022/11/01 09:22:46;;;;;;;2.35;0.80;;;16.80;99.90;;;;;;10178745;29;20051;-77
2022/11/01 09:27:47;;;;;;;3.40;1.00;;;16.80;99.90;;;;;;10195884;29;20441;-77
2022/11/01 09:32:51;;;;;;;1.75;0.80;;;16.80;99.90;;;;;;10211266;29;20437;-77
2022/11/01 09:37:58;;;;;;;2.30;0.80;;;16.80;99.90;;;;;;10212197;29;20079;-77
2022/11/01 09:43:00;;;;;;;3.40;0.80;;;16.90;99.90;;;;;;10247259;28;20066;-76
2022/11/01 09:48:05;;;;;;;2.35;0.80;;;17.00;99.90;;;;;;10299539;28;20544;-78
2022/11/01 09:53:14;;;;;;;1.90;0.77;;;17.20;99.90;;;;;;10257648;29;20047;-77
2022/11/01 09:58:29;;;;;;;1.95;0.75;;;17.40;99.90;;;;;;10264183;28;20051;-76
2022/11/01 10:03:59;;;;;;;1.55;0.65;;;17.40;99.90;;;;;;10259245;28;20050;-79
2022/11/01 10:09:11;;;;;;;1.77;0.63;;;17.50;99.90;;;;;;10272200;28;20047;-77
2022/11/01 10:14:32;;;;;;;2.38;0.70;;;17.50;99.90;;;;;;10279340;28;20050;-77
2022/11/01 10:19:37;;;;;;;2.05;0.73;;;17.60;99.90;;;;;;10293429;28;20412;-77
2022/11/01 10:24:45;;;;;;;1.98;0.70;;;17.70;99.90;;;;;;10293642;28;20050;-76
2022/11/01 10:29:52;;;;;;;1.55;0.60;;;17.90;99.90;;;;;;10291443;28;20074;-78
2022/11/01 10:35:00;;;;;;;1.52;0.60;;;17.90;99.90;;;;;;10288656;28;20051;-74
2022/11/01 10:40:11;;;;;;;1.73;0.70;;;17.80;99.90;;;;;;10275107;28;20051;-77
2022/11/01 10:45:18;;;;;;;2.00;0.70;;;17.80;99.90;;;;;;10281013;28;20416;-79
2022/11/01 10:50:24;;;;;;;2.22;0.70;;;17.70;99.90;;;;;;10291343;28;20050;-78
2022/11/01 10:55:34;;;;;;;1.80;0.80;;;17.80;99.90;;;;;;10290996;28;20055;-78
2022/11/01 11:00:39;;;;;;;1.63;0.60;;;17.70;99.90;;;;;;10290132;28;20047;-78
2022/11/01 11:05:44;;;;;;;2.53;0.80;;;17.80;99.90;;;;;;10293955;28;20082;-78
2022/11/01 11:10:46;;;;;;;2.63;0.77;;;17.80;99.90;;;;;;10289158;28;20054;-77
2022/11/01 11:15:53;;;;;;;20.10;9.70;;;17.80;99.90;;;;;;10291224;28;20117;-74
2022/11/01 11:21:01;;;;;;;2.63;0.73;;;17.80;99.90;;;;;;10258335;28;20546;-77
2022/11/01 11:26:05;;;;;;;4.53;0.80;;;17.90;99.90;;;;;;10284397;28;20472;-77
2022/11/01 11:31:14;;;;;;;1.70;0.70;;;17.80;99.90;;;;;;10295029;28;20047;-77
2022/11/01 11:36:18;;;;;;;3.13;0.90;;;17.90;99.90;;;;;;10295741;28;20059;-77
2022/11/01 11:41:29;;;;;;;3.55;0.90;;;18.10;99.90;;;;;;10292453;28;20527;-77
2022/11/01 11:46:31;;;;;;;1.48;0.70;;;18.20;99.90;;;;;;10295730;28;20050;-77
2022/11/01 11:51:37;;;;;;;2.78;0.90;;;18.30;99.90;;;;;;10293610;28;20080;-77
2022/11/01 11:56:39;;;;;;;2.55;0.90;;;18.40;99.90;;;;;;10255858;28;20099;-75
2022/11/01 12:01:41;;;;;;;2.78;0.80;;;18.40;99.90;;;;;;10295702;28;20077;-76
2022/11/01 12:06:46;;;;;;;5.45;1.00;;;18.40;99.80;;;;;;10294165;28;20039;-76
2022/11/01 12:11:48;;;;;;;3.22;0.98;;;18.40;99.60;;;;;;10291529;28;20050;-75
2022/11/01 12:16:51;;;;;;;2.40;0.82;;;18.50;99.30;;;;;;10286761;28;20078;-76
2022/11/01 12:21:55;;;;;;;3.38;0.95;;;18.50;99.00;;;;;;10292722;28;20059;-76
2022/11/01 12:27:04;;;;;;;3.22;0.90;;;18.70;98.60;;;;;;10284689;28;20492;-74
2022/11/01 12:32:13;;;;;;;4.18;1.00;;;18.80;98.60;;;;;;10276113;28;20412;-76
2022/11/01 12:37:19;;;;;;;;;;;18.90;97.70;;;;;;10273220;28;20050;-76
2022/11/01 12:42:27;;;;;;;2.80;0.95;;;19.10;97.80;;;;;;10282709;28;19930;-75
2022/11/01 12:47:37;;;;;;;3.05;0.90;;;19.40;97.10;;;;;;10283415;28;20039;-76
2022/11/01 12:52:44;;;;;;;3.08;0.90;;;19.80;96.20;;;;;;10288434;28;20049;-76
2022/11/01 12:57:48;;;;;;;4.20;0.90;;;20.20;95.70;;;;;;10285720;28;20069;-75
2022/11/01 13:03:16;;;;;;;4.38;0.93;;;20.70;94.80;;;;;;10270435;28;20046;-73
2022/11/01 13:08:30;;;;;;;6.53;1.35;;;20.90;94.20;;;;;;10275015;28;20070;-75
2022/11/01 13:13:41;;;;;;;5.03;1.17;;;21.10;93.30;;;;;;10264684;28;20062;-76
2022/11/01 13:18:50;;;;;;;4.38;1.20;;;21.50;92.90;;;;;;10281767;28;20046;-74
2022/11/01 13:24:00;;;;;;;7.75;3.80;;;22.30;91.40;;;;;;10283596;28;20530;-77
2022/11/01 13:29:10;;;;;;;3.88;1.08;;;23.80;87.00;;;;;;10290190;28;20049;-74
2022/11/01 13:34:36;;;;;;;3.03;1.00;;;27.80;74.70;;;;;;10287555;28;20073;-75
2022/11/01 13:39:56;;;;;;;6.97;1.10;;;29.10;61.70;;;;;;10283443;28;20051;-76
2022/11/01 13:45:21;;;;;;;3.83;1.10;;;26.30;64.80;;;;;;10286733;28;20055;-74
2022/11/01 13:50:58;;;;;;;3.92;1.15;;;26.10;65.70;;;;;;10285143;28;20059;-75
2022/11/01 13:56:09;;;;;;;4.40;1.00;;;26.50;65.00;;;;;;10292611;28;20049;-78
2022/11/01 14:01:31;;;;;;;4.70;1.30;;;26.50;64.90;;;;;;10295824;28;20059;-76
2022/11/01 14:06:36;;;;;;;3.85;1.17;;;24.30;69.10;;;;;;10287973;28;20466;-76
2022/11/01 14:11:49;;;;;;;2.60;0.98;;;23.50;71.90;;;;;;10301213;28;20098;-76
2022/11/01 14:16:51;;;;;;;5.40;1.10;;;23.90;71.60;;;;;;10293056;28;20054;-77
2022/11/01 14:21:53;;;;;;;3.70;1.08;;;25.40;69.60;;;;;;10302745;28;20082;-79
2022/11/01 14:27:33;;;;;;;4.65;1.08;;;26.40;66.00;;;;;;10287562;28;20049;-78
2022/11/01 14:32:37;;;;;;;4.30;1.25;;;26.60;64.20;;;;;;10280194;28;20058;-75
2022/11/01 14:37:43;;;;;;;3.72;1.20;;;26.10;64.00;;;;;;10267293;28;20046;-74
2022/11/01 14:42:49;;;;;;;3.53;1.02;;;25.40;65.50;;;;;;10283152;28;20058;-77
2022/11/01 14:47:57;;;;;;;3.35;0.95;;;26.70;63.90;;;;;;10287829;28;20066;-74
2022/11/01 14:53:07;;;;;;;3.47;0.95;;;27.10;62.60;;;;;;10288422;28;20138;-74
2022/11/01 14:58:21;;;;;;;4.85;1.30;;;26.70;60.40;;;;;;10281644;28;20449;-73
2022/11/01 15:03:23;;;;;;;3.13;0.80;;;25.80;61.30;;;;;;10286016;28;20058;-75
2022/11/01 15:08:31;;;;;;;4.82;0.98;;;25.40;61.60;;;;;;10278017;28;20575;-74
2022/11/01 15:13:37;;;;;;;;;;;24.60;63.00;;;;;;10279894;28;20055;-73
2022/11/01 15:18:47;;;;;;;4.77;1.03;;;23.80;64.60;;;;;;10277880;28;19981;-74
2022/11/01 15:23:50;;;;;;;3.65;1.10;;;23.80;66.10;;;;;;10276898;28;20047;-76
2022/11/01 15:28:57;;;;;;;2.78;0.90;;;24.40;65.30;;;;;;10281844;28;20113;-76
2022/11/01 15:34:02;;;;;;;3.55;1.08;;;25.00;64.10;;;;;;10281357;28;20055;-74
2022/11/01 15:39:18;;;;;;;3.75;1.00;;;25.40;63.60;;;;;;10283238;28;20055;-75
2022/11/01 15:44:24;;;;;;;3.00;0.82;;;25.20;63.40;;;;;;10262358;28;20063;-76
2022/11/01 15:49:30;;;;;;;4.00;1.20;;;25.00;64.00;;;;;;10287193;28;20046;-75
2022/11/01 15:54:41;;;;;;;5.93;2.42;;;24.70;64.80;;;;;;10287873;28;20082;-76
2022/11/01 15:59:52;;;;;;;7.35;2.20;;;23.40;71.40;;;;;;10290467;28;20054;-75
2022/11/01 16:04:55;;;;;;;6.53;1.80;;;22.40;75.20;;;;;;10288775;28;20448;-76
2022/11/01 16:10:02;;;;;;;8.15;1.92;;;21.40;78.30;;;;;;10286917;28;20170;-77
2022/11/01 16:15:08;;;;;;;6.22;1.73;;;20.60;81.40;;;;;;10285121;28;20113;-77
2022/11/01 16:20:29;;;;;;;5.73;1.80;;;20.50;83.40;;;;;;10288411;28;20074;-78
2022/11/01 16:25:34;;;;;;;6.03;1.80;;;20.00;86.10;;;;;;10274258;28;20078;-74
2022/11/01 16:30:45;;;;;;;6.63;1.75;;;19.80;88.00;;;;;;10295597;28;20050;-76
2022/11/01 16:35:49;;;;;;;7.55;2.08;;;19.50;90.10;;;;;;10289506;28;20070;-77
2022/11/01 16:40:55;;;;;;;13.38;2.90;;;19.30;90.90;;;;;;10279855;28;20055;-76
2022/11/01 16:46:00;;;;;;;6.93;2.00;;;19.00;92.10;;;;;;10285933;28;20070;-76
2022/11/01 16:51:03;;;;;;;7.43;2.72;;;18.80;93.20;;;;;;10287487;28;20055;-76
2022/11/01 16:56:09;;;;;;;5.38;2.00;;;18.70;93.80;;;;;;10286492;28;20078;-77
2022/11/01 17:01:21;;;;;;;7.03;2.28;;;18.40;94.70;;;;;;10274161;28;20083;-74
2022/11/01 17:06:24;;;;;;;7.57;2.63;;;18.30;95.60;;;;;;10281061;28;20072;-76
2022/11/01 17:11:27;;;;;;;23.60;12.35;;;18.20;96.20;;;;;;10287371;28;20138;-76
2022/11/01 17:16:30;;;;;;;8.80;3.10;;;18.00;96.90;;;;;;10286160;28;20062;-75
2022/11/01 17:21:37;;;;;;;11.57;3.10;;;17.70;97.80;;;;;;10285617;28;20070;-76
2022/11/01 17:26:39;;;;;;;7.57;2.22;;;17.70;98.50;;;;;;10288421;28;20050;-77
2022/11/01 17:31:42;;;;;;;7.53;2.75;;;17.40;99.00;;;;;;10285985;28;20081;-76
2022/11/01 17:36:48;;;;;;;6.95;2.10;;;17.20;99.90;;;;;;10285262;28;20086;-74
2022/11/01 17:41:49;;;;;;;6.50;2.00;;;17.10;99.90;;;;;;10284371;28;20082;-76
2022/11/01 17:46:53;;;;;;;6.38;1.83;;;16.90;99.90;;;;;;10284618;28;20109;-75
2022/11/01 17:51:55;;;;;;;7.63;1.90;;;17.00;99.70;;;;;;10285003;28;20074;-74
2022/11/01 17:56:57;;;;;;;8.25;2.10;;;16.90;99.90;;;;;;10284545;28;20060;-75
2022/11/01 18:02:00;;;;;;;9.32;2.33;;;16.80;99.90;;;;;;10281772;28;20461;-74
2022/11/01 18:07:02;;;;;;;37.60;18.48;;;16.70;99.90;;;;;;10291417;28;20086;-76
2022/11/01 18:12:10;;;;;;;8.38;3.42;;;16.60;99.90;;;;;;10299246;28;20070;-74
2022/11/01 18:17:45;;;;;;;9.20;2.33;;;16.60;99.80;;;;;;10295991;28;20672;-74
2022/11/01 18:22:54;;;;;;;6.90;2.10;;;16.60;99.50;;;;;;10290532;28;20053;-75
2022/11/01 18:27:59;;;;;;;5.28;1.80;;;16.50;99.00;;;;;;10264380;28;20055;-77
2022/11/01 18:33:08;;;;;;;7.43;1.90;;;16.50;98.80;;;;;;10277737;28;20050;-75
2022/11/01 18:38:21;;;;;;;5.07;1.83;;;16.50;98.60;;;;;;10285464;28;20545;-77
2022/11/01 18:43:26;;;;;;;4.93;1.70;;;16.50;98.30;;;;;;10280604;28;20409;-76
2022/11/01 18:48:30;;;;;;;4.75;1.83;;;16.50;98.00;;;;;;10289733;28;20542;-76
2022/11/01 18:53:34;;;;;;;18.88;10.02;;;16.40;97.90;;;;;;10281201;28;20059;-78
2022/11/01 18:58:37;;;;;;;8.05;2.78;;;16.50;98.70;;;;;;10285518;28;20055;-77
2022/11/01 19:03:41;;;;;;;7.45;3.28;;;16.40;98.40;;;;;;10269231;28;20098;-76
2022/11/01 19:08:46;;;;;;;9.30;3.80;;;16.40;99.90;;;;;;10278418;28;20062;-77
2022/11/01 19:13:50;;;;;;;8.25;2.30;;;16.20;99.80;;;;;;10292408;28;20050;-77
2022/11/01 19:18:53;;;;;;;5.35;1.98;;;15.90;99.70;;;;;;10301698;28;20043;-77
2022/11/01 19:23:57;;;;;;;8.05;2.80;;;16.00;99.20;;;;;;10278488;28;20810;-76
2022/11/01 19:28:58;;;;;;;5.18;2.80;;;15.80;99.10;;;;;;10289749;28;20161;-75
2022/11/01 19:34:06;;;;;;;4.05;1.92;;;15.80;99.20;;;;;;10283321;28;20456;-76
2022/11/01 19:39:22;;;;;;;6.13;2.25;;;15.80;99.00;;;;;;10284697;28;20129;-76
2022/11/01 19:44:25;;;;;;;5.28;1.65;;;15.90;99.10;;;;;;10276501;28;20582;-74
2022/11/01 19:49:30;;;;;;;7.72;3.10;;;15.80;99.00;;;;;;10279148;28;20465;-74
2022/11/01 19:54:36;;;;;;;7.85;3.35;;;15.80;99.90;;;;;;10288372;28;20075;-75
2022/11/01 19:59:38;;;;;;;7.60;2.70;;;15.70;99.90;;;;;;10285117;28;20093;-76
2022/11/01 20:04:41;;;;;;;6.20;2.50;;;15.60;99.90;;;;;;10287007;28;20089;-76
2022/11/01 20:09:43;;;;;;;5.22;2.50;;;15.50;99.90;;;;;;10285544;28;20051;-76
2022/11/01 20:14:45;;;;;;;5.43;2.15;;;15.50;99.90;;;;;;10286492;28;20058;-76
2022/11/01 20:19:49;;;;;;;7.43;2.08;;;15.30;99.90;;;;;;10287214;28;20504;-75
2022/11/01 20:24:50;;;;;;;7.82;2.20;;;15.30;99.90;;;;;;10295589;28;20054;-75
2022/11/01 20:29:52;;;;;;;6.55;1.60;;;15.20;99.90;;;;;;10289991;28;20102;-76
2022/11/01 20:34:56;;;;;;;6.13;2.22;;;15.10;99.90;;;;;;10270782;28;20051;-75
2022/11/01 20:39:58;;;;;;;13.82;6.25;;;15.00;99.90;;;;;;10287551;28;20121;-76
2022/11/01 20:45:00;;;;;;;11.02;5.22;;;14.90;99.90;;;;;;10285708;28;20070;-75
2022/11/01 20:50:07;;;;;;;10.75;5.10;;;14.70;99.90;;;;;;10286131;28;20074;-76
2022/11/01 20:55:11;;;;;;;6.30;3.05;;;14.60;99.90;;;;;;10280208;28;20520;-74
2022/11/01 21:00:17;;;;;;;10.50;4.00;;;14.50;99.90;;;;;;10274748;28;20091;-73
2022/11/01 21:05:24;;;;;;;6.90;2.70;;;14.40;99.90;;;;;;10273377;28;20055;-75
2022/11/01 21:10:32;;;;;;;6.60;2.55;;;14.40;99.90;;;;;;10247585;28;20059;-75
2022/11/01 21:15:37;;;;;;;5.63;2.40;;;14.30;99.90;;;;;;10286501;28;20464;-74
2022/11/01 21:20:44;;;;;;;9.38;2.70;;;14.10;99.90;;;;;;10283926;28;20550;-74
2022/11/01 21:25:46;;;;;;;7.97;2.60;;;13.90;99.90;;;;;;10286438;28;20102;-74
2022/11/01 21:30:48;;;;;;;4.40;2.13;;;13.70;99.90;;;;;;10286821;28;20074;-74
2022/11/01 21:35:52;;;;;;;5.32;1.92;;;13.60;99.90;;;;;;10273423;28;20075;-73
2022/11/01 21:40:54;;;;;;;5.38;1.70;;;13.60;99.90;;;;;;10259969;28;20079;-75
2022/11/01 21:45:56;;;;;;;6.28;1.95;;;13.50;99.90;;;;;;10293099;28;20109;-76
2022/11/01 21:50:59;;;;;;;5.03;2.15;;;13.40;99.90;;;;;;10292234;28;20476;-75
2022/11/01 21:56:02;;;;;;;6.25;1.80;;;13.40;99.90;;;;;;10295395;28;20175;-74
2022/11/01 22:01:05;;;;;;;6.82;2.00;;;13.30;99.90;;;;;;10284399;28;20055;-74
2022/11/01 22:06:08;;;;;;;7.78;3.10;;;13.30;99.90;;;;;;10293705;28;20106;-75
2022/11/01 22:11:10;;;;;;;5.00;2.30;;;13.20;99.90;;;;;;10290965;28;20090;-74
2022/11/01 22:16:12;;;;;;;10.10;4.80;;;13.10;99.90;;;;;;10292409;28;20053;-75
2022/11/01 22:21:16;;;;;;;11.45;5.40;;;13.10;99.90;;;;;;10288813;28;20051;-75
2022/11/01 22:26:18;;;;;;;9.57;4.72;;;13.10;99.90;;;;;;10294723;28;20047;-74
2022/11/01 22:31:20;;;;;;;8.77;3.92;;;13.00;99.90;;;;;;10289935;28;20059;-75
2022/11/01 22:36:26;;;;;;;8.63;3.80;;;13.00;99.90;;;;;;10265888;28;20053;-73
2022/11/01 22:41:30;;;;;;;7.72;3.75;;;13.00;99.90;;;;;;10296907;28;20074;-75
2022/11/01 22:46:44;;;;;;;5.57;3.10;;;12.90;99.90;;;;;;10293872;28;20109;-75
2022/11/01 22:51:51;;;;;;;6.88;2.88;;;12.80;99.90;;;;;;10297716;28;20055;-74
2022/11/01 22:57:00;;;;;;;8.43;3.40;;;12.80;99.90;;;;;;10270333;28;20109;-74
